sensor_id;sensor_type;location;lat;lon;timestamp;pressure;altitude;pressure_sealevel;temperature;humidity
41945;BME280;63122;52.424;13.458;2023-05-20T00:28:14;101978.16;;;13.92;100.00
41945;BME280;63122;52.424;13.458;2023-05-20T00:37:10;101974.00;;;13.80;100.00
41945;BME280;63122;52.424;13.458;2023-05-20T00:51:54;101972.03;;;13.52;100.00
41945;BME280;63122;52.424;13.458;2023-05-20T00:55:00;101971.91;;;13.54;100.00
41945;BME280;63122;52.424;13.458;2023-05-20T01:07:43;101962.84;;;13.47;100.00
41945;BME280;63122;52.424;13.458;2023-05-20T01:09:38;101968.38;;;13.34;100.00
41945;BME280;63122;52.424;13.458;2023-05-20T01:11:39;101967.00;;;13.30;100.00
41945;BME280;63122;52.424;13.458;2023-05-20T01:13:44;101964.47;;;13.28;100.00
41945;BME280;63122;52.424;13.458;2023-05-20T01:15:44;101958.75;;;13.23;100.00
41945;BME280;63122;52.424;13.458;2023-05-20T01:17:43;101962.06;;;13.15;100.00
41945;BME280;63122;52.424;13.458;2023-05-20T01:19:44;101960.94;;;13.08;100.00
41945;BME280;63122;52.424;13.458;2023-05-20T01:21:41;101959.13;;;12.99;100.00
41945;BME280;63122;52.424;13.458;2023-05-20T01:23:42;101957.00;;;12.92;100.00
41945;BME280;63122;52.424;13.458;2023-05-20T01:25:42;101951.97;;;12.89;100.00
41945;BME280;63122;52.424;13.458;2023-05-20T01:27:40;101947.53;;;12.90;100.00
41945;BME280;63122;52.424;13.458;2023-05-20T01:29:36;101954.63;;;12.89;100.00
41945;BME280;63122;52.424;13.458;2023-05-20T01:31:36;101950.03;;;12.91;100.00
41945;BME280;63122;52.424;13.458;2023-05-20T01:33:35;101950.59;;;12.95;100.00
41945;BME280;63122;52.424;13.458;2023-05-20T01:35:33;101947.56;;;13.00;100.00
41945;BME280;63122;52.424;13.458;2023-05-20T01:37:31;101947.13;;;13.04;100.00
41945;BME280;63122;52.424;13.458;2023-05-20T01:39:35;101945.19;;;13.06;100.00
41945;BME280;63122;52.424;13.458;2023-05-20T01:41:34;101944.63;;;13.03;100.00
41945;BME280;63122;52.424;13.458;2023-05-20T01:43:42;101942.91;;;12.82;100.00
41945;BME280;63122;52.424;13.458;2023-05-20T01:45:40;101941.63;;;12.76;100.00
41945;BME280;63122;52.424;13.458;2023-05-20T01:47:36;101939.94;;;12.75;100.00
41945;BME280;63122;52.424;13.458;2023-05-20T01:49:33;101945.66;;;12.80;100.00
41945;BME280;63122;52.424;13.458;2023-05-20T01:51:30;101948.03;;;12.84;100.00
41945;BME280;63122;52.424;13.458;2023-05-20T01:53:28;101952.94;;;12.88;100.00
41945;BME280;63122;52.424;13.458;2023-05-20T01:55:32;101944.19;;;12.88;100.00
41945;BME280;63122;52.424;13.458;2023-05-20T01:57:30;101943.22;;;12.89;100.00
41945;BME280;63122;52.424;13.458;2023-05-20T02:00:12;101935.97;;;12.91;100.00
41945;BME280;63122;52.424;13.458;2023-05-20T02:06:44;101939.31;;;12.93;100.00
41945;BME280;63122;52.424;13.458;2023-05-20T02:10:11;101940.84;;;12.95;100.00
41945;BME280;63122;52.424;13.458;2023-05-20T02:17:26;101941.84;;;13.04;100.00
41945;BME280;63122;52.424;13.458;2023-05-20T02:20:19;101934.03;;;13.03;100.00
41945;BME280;63122;52.424;13.458;2023-05-20T02:22:34;101928.75;;;13.03;100.00
41945;BME280;63122;52.424;13.458;2023-05-20T02:24:38;101929.44;;;13.05;100.00
41945;BME280;63122;52.424;13.458;2023-05-20T02:26:53;101932.78;;;13.07;100.00
41945;BME280;63122;52.424;13.458;2023-05-20T02:29:16;101924.97;;;13.05;100.00
41945;BME280;63122;52.424;13.458;2023-05-20T02:31:44;101924.13;;;13.05;100.00
41945;BME280;63122;52.424;13.458;2023-05-20T02:34:56;101932.66;;;12.99;100.00
41945;BME280;63122;52.424;13.458;2023-05-20T02:37:04;101929.25;;;12.96;100.00
41945;BME280;63122;52.424;13.458;2023-05-20T02:39:14;101935.28;;;12.99;100.00
41945;BME280;63122;52.424;13.458;2023-05-20T02:41:39;101932.88;;;12.95;100.00
41945;BME280;63122;52.424;13.458;2023-05-20T02:43:51;101939.03;;;12.96;100.00
41945;BME280;63122;52.424;13.458;2023-05-20T02:46:11;101936.22;;;12.98;100.00
41945;BME280;63122;52.424;13.458;2023-05-20T02:48:36;101944.72;;;12.91;100.00
41945;BME280;63122;52.424;13.458;2023-05-20T02:53:08;101947.66;;;12.88;100.00
41945;BME280;63122;52.424;13.458;2023-05-20T02:55:05;101942.63;;;12.85;100.00
41945;BME280;63122;52.424;13.458;2023-05-20T02:57:02;101940.97;;;12.84;100.00
41945;BME280;63122;52.424;13.458;2023-05-20T02:58:59;101941.81;;;12.85;100.00
41945;BME280;63122;52.424;13.458;2023-05-20T03:00:56;101939.72;;;12.88;100.00
41945;BME280;63122;52.424;13.458;2023-05-20T03:02:53;101942.09;;;12.91;100.00
41945;BME280;63122;52.424;13.458;2023-05-20T03:04:50;101949.19;;;12.91;100.00
41945;BME280;63122;52.424;13.458;2023-05-20T03:06:51;101950.88;;;12.92;100.00
41945;BME280;63122;52.424;13.458;2023-05-20T03:08:49;101942.09;;;12.91;100.00
41945;BME280;63122;52.424;13.458;2023-05-20T03:10:47;101954.34;;;12.92;100.00
41945;BME280;63122;52.424;13.458;2023-05-20T03:12:43;101950.88;;;12.92;100.00
41945;BME280;63122;52.424;13.458;2023-05-20T03:14:39;101956.28;;;12.90;100.00
41945;BME280;63122;52.424;13.458;2023-05-20T03:16:35;101956.19;;;12.92;100.00
41945;BME280;63122;52.424;13.458;2023-05-20T03:18:32;101951.00;;;12.90;100.00
41945;BME280;63122;52.424;13.458;2023-05-20T03:20:30;101951.69;;;12.92;100.00
41945;BME280;63122;52.424;13.458;2023-05-20T03:22:32;101959.53;;;12.94;100.00
41945;BME280;63122;52.424;13.458;2023-05-20T03:24:29;101962.88;;;12.96;100.00
41945;BME280;63122;52.424;13.458;2023-05-20T03:26:30;101951.56;;;12.94;100.00
41945;BME280;63122;52.424;13.458;2023-05-20T03:28:29;101950.72;;;12.93;100.00
41945;BME280;63122;52.424;13.458;2023-05-20T03:30:27;101950.88;;;12.92;100.00
41945;BME280;63122;52.424;13.458;2023-05-20T03:32:25;101955.31;;;12.91;100.00
41945;BME280;63122;52.424;13.458;2023-05-20T03:34:22;101957.16;;;12.91;100.00
41945;BME280;63122;52.424;13.458;2023-05-20T03:36:19;101961.47;;;12.92;100.00
41945;BME280;63122;52.424;13.458;2023-05-20T03:38:21;101954.34;;;12.92;100.00
41945;BME280;63122;52.424;13.458;2023-05-20T03:40:17;101953.53;;;12.92;100.00
41945;BME280;63122;52.424;13.458;2023-05-20T03:42:15;101952.41;;;12.94;100.00
41945;BME280;63122;52.424;13.458;2023-05-20T03:44:17;101958.56;;;12.95;100.00
41945;BME280;63122;52.424;13.458;2023-05-20T03:46:15;101956.72;;;12.95;100.00
41945;BME280;63122;52.424;13.458;2023-05-20T04:07:00;101958.41;;;12.96;100.00
41945;BME280;63122;52.424;13.458;2023-05-20T04:09:14;101958.13;;;12.90;100.00
41945;BME280;63122;52.424;13.458;2023-05-20T04:12:16;101951.28;;;12.87;100.00
41945;BME280;63122;52.424;13.458;2023-05-20T04:15:18;101947.94;;;12.85;100.00
41945;BME280;63122;52.424;13.458;2023-05-20T04:18:30;101942.63;;;12.85;100.00
41945;BME280;63122;52.424;13.458;2023-05-20T04:30:37;101955.44;;;12.80;100.00
41945;BME280;63122;52.424;13.458;2023-05-20T04:34:05;101959.88;;;12.79;100.00
41945;BME280;63122;52.424;13.458;2023-05-20T04:37:03;101957.13;;;12.81;100.00
41945;BME280;63122;52.424;13.458;2023-05-20T04:40:47;101956.25;;;12.80;100.00
41945;BME280;63122;52.424;13.458;2023-05-20T04:43:28;101959.75;;;12.81;100.00
41945;BME280;63122;52.424;13.458;2023-05-20T04:46:37;101954.59;;;12.79;100.00
41945;BME280;63122;52.424;13.458;2023-05-20T04:50:13;101951.25;;;12.77;100.00
41945;BME280;63122;52.424;13.458;2023-05-20T04:55:23;101950.16;;;12.80;100.00
41945;BME280;63122;52.424;13.458;2023-05-20T04:57:09;101942.88;;;12.72;100.00
41945;BME280;63122;52.424;13.458;2023-05-20T04:59:29;101947.91;;;12.75;100.00
41945;BME280;63122;52.424;13.458;2023-05-20T05:01:30;101945.41;;;12.74;100.00
41945;BME280;63122;52.424;13.458;2023-05-20T05:03:34;101949.03;;;12.73;100.00
41945;BME280;63122;52.424;13.458;2023-05-20T05:05:44;101946.81;;;12.78;100.00
41945;BME280;63122;52.424;13.458;2023-05-20T05:08:20;101944.00;;;12.79;100.00
41945;BME280;63122;52.424;13.458;2023-05-20T05:10:43;101943.59;;;12.84;100.00
41945;BME280;63122;52.424;13.458;2023-05-20T05:53:21;101933.75;;;12.96;100.00
41945;BME280;63122;52.424;13.458;2023-05-20T05:55:16;101933.84;;;12.94;100.00
41945;BME280;63122;52.424;13.458;2023-05-20T05:57:12;101936.66;;;12.93;100.00
41945;BME280;63122;52.424;13.458;2023-05-20T05:59:08;101931.50;;;12.91;100.00
41945;BME280;63122;52.424;13.458;2023-05-20T06:01:13;101944.72;;;12.91;100.00
41945;BME280;63122;52.424;13.458;2023-05-20T06:06:33;101937.38;;;12.95;100.00
41945;BME280;63122;52.424;13.458;2023-05-20T06:12:14;101923.81;;;12.88;100.00
41945;BME280;63122;52.424;13.458;2023-05-20T06:14:38;101919.38;;;12.89;100.00
41945;BME280;63122;52.424;13.458;2023-05-20T06:16:41;101917.69;;;12.88;100.00
41945;BME280;63122;52.424;13.458;2023-05-20T06:19:04;101916.44;;;12.92;100.00
41945;BME280;63122;52.424;13.458;2023-05-20T06:21:05;101919.66;;;12.95;100.00
41945;BME280;63122;52.424;13.458;2023-05-20T06:23:00;101921.31;;;12.96;100.00
41945;BME280;63122;52.424;13.458;2023-05-20T06:24:56;101923.72;;;13.00;100.00
41945;BME280;63122;52.424;13.458;2023-05-20T06:26:54;101922.59;;;13.02;100.00
41945;BME280;63122;52.424;13.458;2023-05-20T06:29:22;101926.38;;;13.00;100.00
41945;BME280;63122;52.424;13.458;2023-05-20T06:32:08;101927.88;;;13.02;100.00
41945;BME280;63122;52.424;13.458;2023-05-20T06:34:10;101926.22;;;13.01;100.00
41945;BME280;63122;52.424;13.458;2023-05-20T06:36:35;101932.50;;;13.00;100.00
41945;BME280;63122;52.424;13.458;2023-05-20T06:39:00;101925.50;;;12.99;100.00
41945;BME280;63122;52.424;13.458;2023-05-20T06:41:09;101925.25;;;13.02;100.00
41945;BME280;63122;52.424;13.458;2023-05-20T06:43:41;101933.06;;;13.04;100.00
41945;BME280;63122;52.424;13.458;2023-05-20T06:46:58;101937.94;;;13.08;100.00
41945;BME280;63122;52.424;13.458;2023-05-20T06:52:14;101933.34;;;13.20;100.00
41945;BME280;63122;52.424;13.458;2023-05-20T06:55:22;101935.72;;;13.23;100.00
41945;BME280;63122;52.424;13.458;2023-05-20T06:58:10;101936.00;;;13.20;100.00
41945;BME280;63122;52.424;13.458;2023-05-20T07:04:33;101947.59;;;13.29;100.00
41945;BME280;63122;52.424;13.458;2023-05-20T07:06:37;101945.91;;;13.28;100.00
41945;BME280;63122;52.424;13.458;2023-05-20T07:09:35;101938.53;;;13.32;100.00
41945;BME280;63122;52.424;13.458;2023-05-20T07:12:21;101944.53;;;13.34;100.00
41945;BME280;63122;52.424;13.458;2023-05-20T07:14:43;101939.06;;;13.35;100.00
41945;BME280;63122;52.424;13.458;2023-05-20T07:17:48;101929.31;;;13.36;100.00
41945;BME280;63122;52.424;13.458;2023-05-20T07:20:30;101933.38;;;13.40;100.00
41945;BME280;63122;52.424;13.458;2023-05-20T07:22:39;101919.25;;;13.39;100.00
41945;BME280;63122;52.424;13.458;2023-05-20T07:26:11;101918.88;;;13.44;100.00
41945;BME280;63122;52.424;13.458;2023-05-20T07:29:03;101905.78;;;13.43;100.00
41945;BME280;63122;52.424;13.458;2023-05-20T07:31:37;101914.84;;;13.50;100.00
41945;BME280;63122;52.424;13.458;2023-05-20T07:33:41;101909.38;;;13.51;100.00
41945;BME280;63122;52.424;13.458;2023-05-20T07:35:39;101910.25;;;13.52;100.00
41945;BME280;63122;52.424;13.458;2023-05-20T07:37:36;101909.97;;;13.55;100.00
41945;BME280;63122;52.424;13.458;2023-05-20T07:39:32;101908.41;;;13.62;100.00
41945;BME280;63122;52.424;13.458;2023-05-20T07:41:30;101910.06;;;13.63;100.00
41945;BME280;63122;52.424;13.458;2023-05-20T07:43:27;101905.34;;;13.67;100.00
41945;BME280;63122;52.424;13.458;2023-05-20T07:45:25;101903.09;;;13.72;100.00
41945;BME280;63122;52.424;13.458;2023-05-20T07:47:22;101904.94;;;13.72;100.00
41945;BME280;63122;52.424;13.458;2023-05-20T07:49:19;101910.47;;;13.78;100.00
41945;BME280;63122;52.424;13.458;2023-05-20T07:51:20;101888.41;;;13.88;100.00
41945;BME280;63122;52.424;13.458;2023-05-20T07:53:17;101891.75;;;13.90;100.00
41945;BME280;63122;52.424;13.458;2023-05-20T07:55:13;101895.94;;;13.92;100.00
41945;BME280;63122;52.424;13.458;2023-05-20T07:57:10;101896.50;;;13.96;100.00
41945;BME280;63122;52.424;13.458;2023-05-20T07:59:06;101885.59;;;13.99;100.00
41945;BME280;63122;52.424;13.458;2023-05-20T08:01:01;101895.78;;;14.04;100.00
41945;BME280;63122;52.424;13.458;2023-05-20T08:02:56;101886.81;;;14.15;100.00
41945;BME280;63122;52.424;13.458;2023-05-20T08:04:52;101884.81;;;14.27;100.00
41945;BME280;63122;52.424;13.458;2023-05-20T08:06:51;101897.09;;;14.28;100.00
41945;BME280;63122;52.424;13.458;2023-05-20T08:08:47;101893.69;;;14.35;100.00
41945;BME280;63122;52.424;13.458;2023-05-20T08:10:42;101895.94;;;14.30;100.00
41945;BME280;63122;52.424;13.458;2023-05-20T08:12:38;101892.69;;;14.36;100.00
41945;BME280;63122;52.424;13.458;2023-05-20T08:14:34;101895.59;;;14.43;100.00
41945;BME280;63122;52.424;13.458;2023-05-20T08:16:29;101891.44;;;14.40;100.00
41945;BME280;63122;52.424;13.458;2023-05-20T08:18:25;101889.47;;;14.43;100.00
41945;BME280;63122;52.424;13.458;2023-05-20T08:20:21;101897.16;;;14.46;100.00
41945;BME280;63122;52.424;13.458;2023-05-20T08:22:20;101892.66;;;14.46;100.00
41945;BME280;63122;52.424;13.458;2023-05-20T08:24:16;101895.56;;;14.53;100.00
41945;BME280;63122;52.424;13.458;2023-05-20T08:26:11;101889.44;;;14.52;100.00
41945;BME280;63122;52.424;13.458;2023-05-20T08:28:07;101888.97;;;14.57;100.00
41945;BME280;63122;52.424;13.458;2023-05-20T08:30:03;101883.75;;;14.65;100.00
41945;BME280;63122;52.424;13.458;2023-05-20T08:31:59;101883.59;;;14.67;100.00
41945;BME280;63122;52.424;13.458;2023-05-20T08:33:55;101878.97;;;14.69;100.00
41945;BME280;63122;52.424;13.458;2023-05-20T08:35:51;101875.06;;;14.73;100.00
41945;BME280;63122;52.424;13.458;2023-05-20T08:37:49;101863.63;;;14.73;100.00
41945;BME280;63122;52.424;13.458;2023-05-20T08:39:46;101866.56;;;14.69;100.00
41945;BME280;63122;52.424;13.458;2023-05-20T08:41:41;101867.53;;;14.68;100.00
41945;BME280;63122;52.424;13.458;2023-05-20T08:43:37;101868.34;;;14.69;100.00
41945;BME280;63122;52.424;13.458;2023-05-20T08:45:33;101871.88;;;14.69;100.00
41945;BME280;63122;52.424;13.458;2023-05-20T08:47:32;101871.00;;;14.69;100.00
41945;BME280;63122;52.424;13.458;2023-05-20T08:49:30;101860.81;;;14.64;100.00
41945;BME280;63122;52.424;13.458;2023-05-20T08:51:32;101872.16;;;14.66;100.00
41945;BME280;63122;52.424;13.458;2023-05-20T08:53:31;101868.34;;;14.79;100.00
41945;BME280;63122;52.424;13.458;2023-05-20T08:55:37;101857.72;;;14.79;100.00
41945;BME280;63122;52.424;13.458;2023-05-20T08:57:36;101859.97;;;14.74;100.00
41945;BME280;63122;52.424;13.458;2023-05-20T08:59:33;101861.50;;;14.76;100.00
41945;BME280;63122;52.424;13.458;2023-05-20T09:01:29;101869.16;;;14.79;100.00
41945;BME280;63122;52.424;13.458;2023-05-20T09:03:24;101869.56;;;14.85;100.00
41945;BME280;63122;52.424;13.458;2023-05-20T09:05:20;101869.94;;;14.90;100.00
41945;BME280;63122;52.424;13.458;2023-05-20T09:07:25;101866.13;;;14.92;100.00
41945;BME280;63122;52.424;13.458;2023-05-20T09:09:25;101870.19;;;14.96;100.00
41945;BME280;63122;52.424;13.458;2023-05-20T09:11:21;101876.06;;;14.90;100.00
41945;BME280;63122;52.424;13.458;2023-05-20T09:13:18;101870.44;;;14.93;100.00
41945;BME280;63122;52.424;13.458;2023-05-20T09:15:15;101866.84;;;14.94;100.00
41945;BME280;63122;52.424;13.458;2023-05-20T09:17:10;101869.94;;;14.90;100.00
41945;BME280;63122;52.424;13.458;2023-05-20T09:19:05;101869.69;;;14.83;100.00
41945;BME280;63122;52.424;13.458;2023-05-20T09:21:04;101867.22;;;14.81;100.00
41945;BME280;63122;52.424;13.458;2023-05-20T09:23:01;101857.25;;;14.83;100.00
41945;BME280;63122;52.424;13.458;2023-05-20T09:24:59;101857.25;;;14.83;100.00
41945;BME280;63122;52.424;13.458;2023-05-20T09:26:56;101852.63;;;14.86;100.00
41945;BME280;63122;52.424;13.458;2023-05-20T09:28:55;101857.56;;;14.99;100.00
41945;BME280;63122;52.424;13.458;2023-05-20T09:30:55;101850.91;;;14.94;100.00
41945;BME280;63122;52.424;13.458;2023-05-20T09:32:53;101849.81;;;15.05;100.00
41945;BME280;63122;52.424;13.458;2023-05-20T09:34:49;101843.44;;;15.16;100.00
41945;BME280;63122;52.424;13.458;2023-05-20T09:36:45;101847.84;;;15.25;100.00
41945;BME280;63122;52.424;13.458;2023-05-20T09:38:44;101845.56;;;15.31;100.00
41945;BME280;63122;52.424;13.458;2023-05-20T09:40:43;101862.13;;;15.24;100.00
41945;BME280;63122;52.424;13.458;2023-05-20T09:42:41;101856.31;;;15.29;100.00
41945;BME280;63122;52.424;13.458;2023-05-20T09:44:38;101861.19;;;15.34;100.00
41945;BME280;63122;52.424;13.458;2023-05-20T09:46:35;101859.66;;;15.31;100.00
41945;BME280;63122;52.424;13.458;2023-05-20T09:48:31;101869.41;;;15.22;100.00
41945;BME280;63122;52.424;13.458;2023-05-20T09:50:27;101863.13;;;15.23;100.00
41945;BME280;63122;52.424;13.458;2023-05-20T09:52:23;101856.28;;;15.21;100.00
41945;BME280;63122;52.424;13.458;2023-05-20T09:54:21;101849.44;;;15.18;100.00
41945;BME280;63122;52.424;13.458;2023-05-20T09:56:22;101852.75;;;15.20;100.00
41945;BME280;63122;52.424;13.458;2023-05-20T09:58:19;101855.81;;;15.25;100.00
41945;BME280;63122;52.424;13.458;2023-05-20T10:00:15;101847.38;;;15.30;100.00
41945;BME280;63122;52.424;13.458;2023-05-20T10:02:11;101856.31;;;15.29;100.00
41945;BME280;63122;52.424;13.458;2023-05-20T10:04:08;101847.38;;;15.30;100.00
41945;BME280;63122;52.424;13.458;2023-05-20T10:06:27;101848.88;;;15.33;100.00
41945;BME280;63122;52.424;13.458;2023-05-20T10:08:57;101840.16;;;15.40;100.00
41945;BME280;63122;52.424;13.458;2023-05-20T10:11:04;101838.84;;;15.45;100.00
41945;BME280;63122;52.424;13.458;2023-05-20T10:14:08;101844.38;;;15.51;100.00
41945;BME280;63122;52.424;13.458;2023-05-20T10:20:53;101837.34;;;15.68;100.00
41945;BME280;63122;52.424;13.458;2023-05-20T10:23:36;101835.50;;;15.69;100.00
41945;BME280;63122;52.424;13.458;2023-05-20T10:25:35;101836.38;;;15.78;100.00
41945;BME280;63122;52.424;13.458;2023-05-20T10:27:30;101838.28;;;15.86;100.00
41945;BME280;63122;52.424;13.458;2023-05-20T10:29:52;101837.66;;;15.92;100.00
41945;BME280;63122;52.424;13.458;2023-05-20T10:31:49;101837.66;;;15.92;100.00
41945;BME280;63122;52.424;13.458;2023-05-20T10:33:45;101839.88;;;16.05;100.00
41945;BME280;63122;52.424;13.458;2023-05-20T10:35:53;101841.41;;;16.07;100.00
41945;BME280;63122;52.424;13.458;2023-05-20T10:37:49;101838.25;;;16.12;100.00
41945;BME280;63122;52.424;13.458;2023-05-20T10:39:44;101825.00;;;16.20;100.00
41945;BME280;63122;52.424;13.458;2023-05-20T10:41:40;101832.47;;;16.25;100.00
41945;BME280;63122;52.424;13.458;2023-05-20T10:43:35;101825.50;;;16.32;100.00
41945;BME280;63122;52.424;13.458;2023-05-20T10:45:34;101820.03;;;16.34;100.00
41945;BME280;63122;52.424;13.458;2023-05-20T10:47:29;101822.72;;;16.42;100.00
41945;BME280;63122;52.424;13.458;2023-05-20T10:49:32;101813.41;;;16.46;100.00
41945;BME280;63122;52.424;13.458;2023-05-20T10:51:28;101810.94;;;16.53;100.00
41945;BME280;63122;52.424;13.458;2023-05-20T10:53:25;101812.25;;;16.49;100.00
41945;BME280;63122;52.424;13.458;2023-05-20T10:55:25;101822.75;;;16.50;100.00
41945;BME280;63122;52.424;13.458;2023-05-20T10:57:29;101813.44;;;16.54;100.00
41945;BME280;63122;52.424;13.458;2023-05-20T10:59:25;101817.75;;;16.47;100.00
41945;BME280;63122;52.424;13.458;2023-05-20T11:01:25;101815.91;;;16.56;100.00
41945;BME280;63122;52.424;13.458;2023-05-20T11:03:41;101812.78;;;16.52;100.00
41945;BME280;63122;52.424;13.458;2023-05-20T11:05:38;101804.13;;;16.59;100.00
41945;BME280;63122;52.424;13.458;2023-05-20T11:07:36;101799.47;;;16.61;100.00
41945;BME280;63122;52.424;13.458;2023-05-20T11:09:32;101797.50;;;16.79;100.00
41945;BME280;63122;52.424;13.458;2023-05-20T11:11:38;101795.16;;;16.84;100.00
41945;BME280;63122;52.424;13.458;2023-05-20T11:13:35;101788.66;;;16.79;100.00
41945;BME280;63122;52.424;13.458;2023-05-20T11:15:57;101790.31;;;16.88;100.00
41945;BME280;63122;52.424;13.458;2023-05-20T11:18:53;101790.22;;;17.06;100.00
41945;BME280;63122;52.424;13.458;2023-05-20T11:21:10;101783.38;;;17.20;100.00
41945;BME280;63122;52.424;13.458;2023-05-20T11:27:09;101788.28;;;17.56;100.00
41945;BME280;63122;52.424;13.458;2023-05-20T11:29:08;101781.09;;;17.65;100.00
41945;BME280;63122;52.424;13.458;2023-05-20T11:31:10;101783.91;;;17.72;100.00
41945;BME280;63122;52.424;13.458;2023-05-20T11:33:11;101788.69;;;17.85;100.00
41945;BME280;63122;52.424;13.458;2023-05-20T11:35:24;101784.00;;;17.95;100.00
41945;BME280;63122;52.424;13.458;2023-05-20T11:37:31;101778.47;;;17.97;100.00
41945;BME280;63122;52.424;13.458;2023-05-20T11:40:58;101774.84;;;17.90;100.00
41945;BME280;63122;52.424;13.458;2023-05-20T11:46:15;101772.66;;;17.85;100.00
41945;BME280;63122;52.424;13.458;2023-05-20T11:48:23;101775.03;;;17.88;100.00
41945;BME280;63122;52.424;13.458;2023-05-20T11:50:28;101770.28;;;17.98;100.00
41945;BME280;63122;52.424;13.458;2023-05-20T11:53:13;101773.25;;;18.12;100.00
41945;BME280;63122;52.424;13.458;2023-05-20T11:55:17;101772.16;;;18.30;100.00
41945;BME280;63122;52.424;13.458;2023-05-20T11:57:35;101762.63;;;18.59;100.00
41945;BME280;63122;52.424;13.458;2023-05-20T11:59:43;101755.41;;;19.06;100.00
41945;BME280;63122;52.424;13.458;2023-05-20T12:01:39;101748.44;;;19.35;100.00
41945;BME280;63122;52.424;13.458;2023-05-20T12:03:41;101750.41;;;19.56;95.67
41945;BME280;63122;52.424;13.458;2023-05-20T12:05:55;101743.16;;;19.71;94.73
41945;BME280;63122;52.424;13.458;2023-05-20T12:07:55;101750.00;;;19.89;92.48
41945;BME280;63122;52.424;13.458;2023-05-20T12:09:56;101741.22;;;19.95;92.29
41945;BME280;63122;52.424;13.458;2023-05-20T12:12:45;101747.34;;;20.26;90.02
41945;BME280;63122;52.424;13.458;2023-05-20T12:14:43;101749.75;;;20.21;86.38
41945;BME280;63122;52.424;13.458;2023-05-20T12:16:50;101749.31;;;20.17;86.46
41945;BME280;63122;52.424;13.458;2023-05-20T12:19:07;101740.84;;;19.98;85.43
41945;BME280;63122;52.424;13.458;2023-05-20T12:21:25;101734.75;;;19.90;87.18
41945;BME280;63122;52.424;13.458;2023-05-20T12:23:21;101735.41;;;19.92;89.78
41945;BME280;63122;52.424;13.458;2023-05-20T12:25:27;101726.69;;;20.05;89.81
41945;BME280;63122;52.424;13.458;2023-05-20T12:27:39;101727.03;;;20.17;89.46
41945;BME280;63122;52.424;13.458;2023-05-20T12:29:39;101726.47;;;20.21;87.39
41945;BME280;63122;52.424;13.458;2023-05-20T12:31:35;101720.59;;;20.33;85.54
41945;BME280;63122;52.424;13.458;2023-05-20T12:33:30;101723.34;;;20.39;83.57
41945;BME280;63122;52.424;13.458;2023-05-20T12:35:36;101710.53;;;20.35;86.78
41945;BME280;63122;52.424;13.458;2023-05-20T12:37:34;101713.66;;;20.60;85.73
41945;BME280;63122;52.424;13.458;2023-05-20T12:39:33;101703.81;;;20.67;85.55
41945;BME280;63122;52.424;13.458;2023-05-20T12:41:28;101706.50;;;20.67;79.34
41945;BME280;63122;52.424;13.458;2023-05-20T12:43:24;101705.94;;;20.79;78.61
41945;BME280;63122;52.424;13.458;2023-05-20T12:45:19;101701.25;;;21.09;80.16
41945;BME280;63122;52.424;13.458;2023-05-20T12:47:15;101693.28;;;21.23;79.66
41945;BME280;63122;52.424;13.458;2023-05-20T12:49:11;101698.88;;;21.28;78.39
41945;BME280;63122;52.424;13.458;2023-05-20T12:51:07;101702.59;;;21.27;76.92
41945;BME280;63122;52.424;13.458;2023-05-20T12:53:05;101698.94;;;21.41;77.59
41945;BME280;63122;52.424;13.458;2023-05-20T12:55:01;101692.00;;;21.54;77.55
41945;BME280;63122;52.424;13.458;2023-05-20T12:57:05;101706.34;;;21.68;78.33
41945;BME280;63122;52.424;13.458;2023-05-20T12:59:02;101699.50;;;21.65;77.97
41945;BME280;63122;52.424;13.458;2023-05-20T13:00:57;101692.72;;;21.76;74.80
41945;BME280;63122;52.424;13.458;2023-05-20T13:02:53;101688.25;;;21.97;74.56
41945;BME280;63122;52.424;13.458;2023-05-20T13:04:48;101690.13;;;22.23;73.74
41945;BME280;63122;52.424;13.458;2023-05-20T13:06:43;101676.94;;;22.22;70.39
41945;BME280;63122;52.424;13.458;2023-05-20T13:08:41;101681.88;;;22.32;66.92
41945;BME280;63122;52.424;13.458;2023-05-20T13:10:37;101681.69;;;22.33;67.11
41945;BME280;63122;52.424;13.458;2023-05-20T13:12:33;101671.56;;;22.22;67.51
41945;BME280;63122;52.424;13.458;2023-05-20T13:14:28;101674.84;;;22.17;68.91
41945;BME280;63122;52.424;13.458;2023-05-20T13:16:24;101674.81;;;22.10;68.22
41945;BME280;63122;52.424;13.458;2023-05-20T13:18:20;101668.03;;;22.28;67.68
41945;BME280;63122;52.424;13.458;2023-05-20T13:20:15;101662.50;;;22.50;66.10
41945;BME280;63122;52.424;13.458;2023-05-20T13:22:11;101657.31;;;22.62;66.13
41945;BME280;63122;52.424;13.458;2023-05-20T13:24:09;101660.81;;;22.76;64.82
41945;BME280;63122;52.424;13.458;2023-05-20T13:26:05;101644.66;;;22.89;63.94
41945;BME280;63122;52.424;13.458;2023-05-20T13:28:01;101647.13;;;22.91;63.49
41945;BME280;63122;52.424;13.458;2023-05-20T13:29:57;101651.63;;;23.10;63.46
41945;BME280;63122;52.424;13.458;2023-05-20T13:31:53;101643.31;;;23.32;64.74
41945;BME280;63122;52.424;13.458;2023-05-20T13:33:50;101638.06;;;23.44;62.04
41945;BME280;63122;52.424;13.458;2023-05-20T13:35:48;101640.56;;;23.46;59.50
41945;BME280;63122;52.424;13.458;2023-05-20T13:37:47;101624.47;;;23.32;60.33